sensor_id;sensor_type;location;lat;lon;timestamp;P1;durP1;ratioP1;P2;durP2;ratioP2
19183;SDS011;9724;51.194;6.856;2022-12-07T00:02:16;31.90;;;17.93;;
19183;SDS011;9724;51.194;6.856;2022-12-07T00:04:43;32.77;;;18.37;;
19183;SDS011;9724;51.194;6.856;2022-12-07T00:07:09;30.57;;;18.10;;
19183;SDS011;9724;51.194;6.856;2022-12-07T00:09:36;30.57;;;18.57;;
19183;SDS011;9724;51.194;6.856;2022-12-07T00:12:02;30.93;;;17.90;;
19183;SDS011;9724;51.194;6.856;2022-12-07T00:14:29;36.10;;;19.13;;
19183;SDS011;9724;51.194;6.856;2022-12-07T00:16:55;31.43;;;18.47;;
19183;SDS011;9724;51.194;6.856;2022-12-07T00:19:21;33.47;;;18.87;;
19183;SDS011;9724;51.194;6.856;2022-12-07T00:21:48;34.20;;;19.77;;
19183;SDS011;9724;51.194;6.856;2022-12-07T00:24:14;37.37;;;18.77;;
19183;SDS011;9724;51.194;6.856;2022-12-07T00:26:41;31.60;;;19.00;;
19183;SDS011;9724;51.194;6.856;2022-12-07T00:29:08;29.57;;;18.30;;
19183;SDS011;9724;51.194;6.856;2022-12-07T00:31:37;35.87;;;19.50;;
19183;SDS011;9724;51.194;6.856;2022-12-07T00:34:04;35.87;;;20.10;;
19183;SDS011;9724;51.194;6.856;2022-12-07T00:36:30;32.27;;;20.13;;
19183;SDS011;9724;51.194;6.856;2022-12-07T00:38:59;40.53;;;21.07;;
19183;SDS011;9724;51.194;6.856;2022-12-07T00:41:27;36.13;;;20.10;;
19183;SDS011;9724;51.194;6.856;2022-12-07T00:43:54;34.00;;;20.50;;
19183;SDS011;9724;51.194;6.856;2022-12-07T00:46:20;40.37;;;21.60;;
19183;SDS011;9724;51.194;6.856;2022-12-07T00:48:48;36.53;;;22.27;;
19183;SDS011;9724;51.194;6.856;2022-12-07T00:51:15;47.13;;;23.67;;
19183;SDS011;9724;51.194;6.856;2022-12-07T00:53:42;40.10;;;22.07;;
19183;SDS011;9724;51.194;6.856;2022-12-07T00:56:10;39.87;;;22.67;;
19183;SDS011;9724;51.194;6.856;2022-12-07T00:58:37;36.43;;;22.23;;
19183;SDS011;9724;51.194;6.856;2022-12-07T01:01:05;38.80;;;20.70;;
19183;SDS011;9724;51.194;6.856;2022-12-07T01:03:32;37.97;;;21.30;;
19183;SDS011;9724;51.194;6.856;2022-12-07T01:05:58;36.63;;;22.33;;
19183;SDS011;9724;51.194;6.856;2022-12-07T01:08:25;38.23;;;22.43;;
19183;SDS011;9724;51.194;6.856;2022-12-07T01:10:57;39.47;;;22.33;;
19183;SDS011;9724;51.194;6.856;2022-12-07T01:13:24;36.03;;;21.50;;
19183;SDS011;9724;51.194;6.856;2022-12-07T01:15:51;38.77;;;21.80;;
19183;SDS011;9724;51.194;6.856;2022-12-07T01:18:17;37.13;;;21.03;;
19183;SDS011;9724;51.194;6.856;2022-12-07T01:20:43;38.10;;;21.13;;
19183;SDS011;9724;51.194;6.856;2022-12-07T01:23:09;40.90;;;21.70;;
19183;SDS011;9724;51.194;6.856;2022-12-07T01:25:35;38.53;;;21.37;;
19183;SDS011;9724;51.194;6.856;2022-12-07T01:28:01;33.83;;;20.33;;
19183;SDS011;9724;51.194;6.856;2022-12-07T01:30:28;36.33;;;20.63;;
19183;SDS011;9724;51.194;6.856;2022-12-07T01:32:54;33.37;;;20.80;;
19183;SDS011;9724;51.194;6.856;2022-12-07T01:35:21;37.97;;;20.73;;
19183;SDS011;9724;51.194;6.856;2022-12-07T01:37:47;34.20;;;20.83;;
19183;SDS011;9724;51.194;6.856;2022-12-07T01:40:13;32.90;;;21.23;;
19183;SDS011;9724;51.194;6.856;2022-12-07T01:42:39;34.77;;;21.40;;
19183;SDS011;9724;51.194;6.856;2022-12-07T01:45:33;40.37;;;21.10;;
19183;SDS011;9724;51.194;6.856;2022-12-07T01:48:03;37.27;;;22.00;;
19183;SDS011;9724;51.194;6.856;2022-12-07T01:50:30;42.93;;;21.87;;
19183;SDS011;9724;51.194;6.856;2022-12-07T01:52:57;36.03;;;21.10;;
19183;SDS011;9724;51.194;6.856;2022-12-07T01:55:25;35.90;;;20.63;;
19183;SDS011;9724;51.194;6.856;2022-12-07T01:57:52;41.97;;;22.67;;
19183;SDS011;9724;51.194;6.856;2022-12-07T02:00:19;33.73;;;21.27;;
19183;SDS011;9724;51.194;6.856;2022-12-07T02:02:47;33.97;;;21.17;;
19183;SDS011;9724;51.194;6.856;2022-12-07T02:05:14;34.63;;;20.00;;
19183;SDS011;9724;51.194;6.856;2022-12-07T02:07:42;33.53;;;20.60;;
19183;SDS011;9724;51.194;6.856;2022-12-07T02:10:12;42.13;;;20.33;;
19183;SDS011;9724;51.194;6.856;2022-12-07T02:12:39;40.63;;;22.83;;
19183;SDS011;9724;51.194;6.856;2022-12-07T02:15:05;30.80;;;19.93;;
19183;SDS011;9724;51.194;6.856;2022-12-07T02:17:34;32.03;;;19.90;;
19183;SDS011;9724;51.194;6.856;2022-12-07T02:20:13;35.63;;;20.27;;
19183;SDS011;9724;51.194;6.856;2022-12-07T02:22:51;38.17;;;19.10;;
19183;SDS011;9724;51.194;6.856;2022-12-07T02:25:48;36.73;;;20.13;;
19183;SDS011;9724;51.194;6.856;2022-12-07T02:28:25;35.83;;;20.83;;
19183;SDS011;9724;51.194;6.856;2022-12-07T02:30:55;37.63;;;20.80;;
19183;SDS011;9724;51.194;6.856;2022-12-07T02:33:24;36.77;;;21.37;;
19183;SDS011;9724;51.194;6.856;2022-12-07T02:35:54;35.10;;;21.13;;
19183;SDS011;9724;51.194;6.856;2022-12-07T02:38:26;38.37;;;21.43;;
19183;SDS011;9724;51.194;6.856;2022-12-07T02:40:54;35.00;;;20.57;;
19183;SDS011;9724;51.194;6.856;2022-12-07T02:43:23;39.47;;;20.03;;
19183;SDS011;9724;51.194;6.856;2022-12-07T02:45:50;35.37;;;21.03;;
19183;SDS011;9724;51.194;6.856;2022-12-07T02:48:17;31.97;;;20.70;;
19183;SDS011;9724;51.194;6.856;2022-12-07T02:50:44;34.43;;;21.17;;
19183;SDS011;9724;51.194;6.856;2022-12-07T02:55:59;36.83;;;20.07;;
19183;SDS011;9724;51.194;6.856;2022-12-07T02:58:32;31.43;;;21.00;;
19183;SDS011;9724;51.194;6.856;2022-12-07T03:01:04;40.17;;;22.23;;
19183;SDS011;9724;51.194;6.856;2022-12-07T03:03:35;36.60;;;21.33;;
19183;SDS011;9724;51.194;6.856;2022-12-07T03:06:07;35.57;;;20.37;;
19183;SDS011;9724;51.194;6.856;2022-12-07T03:08:38;34.37;;;20.43;;
19183;SDS011;9724;51.194;6.856;2022-12-07T03:11:11;36.50;;;21.20;;
19183;SDS011;9724;51.194;6.856;2022-12-07T03:13:47;37.23;;;20.37;;
19183;SDS011;9724;51.194;6.856;2022-12-07T03:16:15;31.33;;;19.13;;
19183;SDS011;9724;51.194;6.856;2022-12-07T03:18:44;34.03;;;20.17;;
19183;SDS011;9724;51.194;6.856;2022-12-07T03:21:13;34.37;;;19.37;;
19183;SDS011;9724;51.194;6.856;2022-12-07T03:23:41;31.93;;;20.10;;
19183;SDS011;9724;51.194;6.856;2022-12-07T03:26:10;36.27;;;20.00;;
19183;SDS011;9724;51.194;6.856;2022-12-07T03:28:39;32.53;;;19.57;;
19183;SDS011;9724;51.194;6.856;2022-12-07T03:31:09;37.63;;;20.83;;
19183;SDS011;9724;51.194;6.856;2022-12-07T03:33:39;32.27;;;18.23;;
19183;SDS011;9724;51.194;6.856;2022-12-07T03:36:14;30.73;;;18.93;;
19183;SDS011;9724;51.194;6.856;2022-12-07T03:38:44;30.77;;;18.60;;
19183;SDS011;9724;51.194;6.856;2022-12-07T03:41:14;31.50;;;18.07;;
19183;SDS011;9724;51.194;6.856;2022-12-07T03:43:43;30.70;;;17.47;;
19183;SDS011;9724;51.194;6.856;2022-12-07T03:46:12;29.87;;;17.47;;
19183;SDS011;9724;51.194;6.856;2022-12-07T03:48:45;29.43;;;16.73;;
19183;SDS011;9724;51.194;6.856;2022-12-07T03:51:17;29.57;;;16.73;;
19183;SDS011;9724;51.194;6.856;2022-12-07T03:53:48;30.77;;;17.90;;
19183;SDS011;9724;51.194;6.856;2022-12-07T03:56:18;25.90;;;16.83;;
19183;SDS011;9724;51.194;6.856;2022-12-07T03:58:45;29.27;;;17.27;;
19183;SDS011;9724;51.194;6.856;2022-12-07T04:01:11;27.50;;;17.50;;
19183;SDS011;9724;51.194;6.856;2022-12-07T04:03:38;31.93;;;17.03;;
19183;SDS011;9724;51.194;6.856;2022-12-07T04:06:05;34.73;;;17.73;;
19183;SDS011;9724;51.194;6.856;2022-12-07T04:08:31;30.33;;;17.63;;
19183;SDS011;9724;51.194;6.856;2022-12-07T04:10:57;27.07;;;16.40;;
19183;SDS011;9724;51.194;6.856;2022-12-07T04:13:23;28.73;;;16.97;;
19183;SDS011;9724;51.194;6.856;2022-12-07T04:15:50;25.97;;;16.37;;
19183;SDS011;9724;51.194;6.856;2022-12-07T04:18:16;29.73;;;17.70;;
19183;SDS011;9724;51.194;6.856;2022-12-07T04:20:42;27.83;;;16.20;;
19183;SDS011;9724;51.194;6.856;2022-12-07T04:23:09;28.33;;;16.53;;
19183;SDS011;9724;51.194;6.856;2022-12-07T04:25:35;27.53;;;16.23;;
19183;SDS011;9724;51.194;6.856;2022-12-07T04:28:01;24.67;;;16.17;;
19183;SDS011;9724;51.194;6.856;2022-12-07T04:30:27;31.30;;;15.83;;
19183;SDS011;9724;51.194;6.856;2022-12-07T04:32:54;29.20;;;16.13;;
19183;SDS011;9724;51.194;6.856;2022-12-07T04:35:20;24.53;;;15.20;;
19183;SDS011;9724;51.194;6.856;2022-12-07T04:37:46;24.03;;;16.07;;
19183;SDS011;9724;51.194;6.856;2022-12-07T04:40:13;26.83;;;16.27;;
19183;SDS011;9724;51.194;6.856;2022-12-07T04:42:39;28.53;;;15.87;;
19183;SDS011;9724;51.194;6.856;2022-12-07T04:45:06;26.27;;;16.20;;
19183;SDS011;9724;51.194;6.856;2022-12-07T04:47:33;24.20;;;14.73;;
19183;SDS011;9724;51.194;6.856;2022-12-07T04:49:59;27.97;;;15.97;;
19183;SDS011;9724;51.194;6.856;2022-12-07T04:52:26;22.27;;;14.93;;
19183;SDS011;9724;51.194;6.856;2022-12-07T04:54:52;29.73;;;15.00;;
19183;SDS011;9724;51.194;6.856;2022-12-07T04:57:20;28.50;;;15.03;;
19183;SDS011;9724;51.194;6.856;2022-12-07T04:59:47;26.57;;;13.83;;
19183;SDS011;9724;51.194;6.856;2022-12-07T05:02:13;26.97;;;15.37;;
19183;SDS011;9724;51.194;6.856;2022-12-07T05:04:39;22.77;;;14.67;;
19183;SDS011;9724;51.194;6.856;2022-12-07T05:07:06;28.20;;;15.10;;
19183;SDS011;9724;51.194;6.856;2022-12-07T05:09:32;25.30;;;14.93;;
19183;SDS011;9724;51.194;6.856;2022-12-07T05:11:58;22.17;;;14.97;;
19183;SDS011;9724;51.194;6.856;2022-12-07T05:14:25;21.13;;;13.43;;
19183;SDS011;9724;51.194;6.856;2022-12-07T05:16:51;24.53;;;14.13;;
19183;SDS011;9724;51.194;6.856;2022-12-07T05:19:19;21.23;;;13.67;;
19183;SDS011;9724;51.194;6.856;2022-12-07T05:21:45;22.13;;;12.53;;
19183;SDS011;9724;51.194;6.856;2022-12-07T05:24:12;22.60;;;13.37;;
19183;SDS011;9724;51.194;6.856;2022-12-07T05:26:40;26.10;;;13.00;;
19183;SDS011;9724;51.194;6.856;2022-12-07T05:29:06;24.97;;;12.80;;
19183;SDS011;9724;51.194;6.856;2022-12-07T05:31:33;23.27;;;12.07;;
19183;SDS011;9724;51.194;6.856;2022-12-07T05:33:59;21.73;;;12.33;;
19183;SDS011;9724;51.194;6.856;2022-12-07T05:36:26;17.90;;;9.80;;
19183;SDS011;9724;51.194;6.856;2022-12-07T05:38:54;37.07;;;19.13;;
19183;SDS011;9724;51.194;6.856;2022-12-07T05:41:20;21.83;;;12.77;;
19183;SDS011;9724;51.194;6.856;2022-12-07T05:44:05;15.93;;;9.40;;
19183;SDS011;9724;51.194;6.856;2022-12-07T05:46:31;17.10;;;8.70;;
19183;SDS011;9724;51.194;6.856;2022-12-07T05:48:58;20.17;;;9.90;;
19183;SDS011;9724;51.194;6.856;2022-12-07T05:51:24;15.03;;;9.10;;
19183;SDS011;9724;51.194;6.856;2022-12-07T05:53:50;13.80;;;9.23;;
19183;SDS011;9724;51.194;6.856;2022-12-07T05:56:16;15.93;;;9.27;;
19183;SDS011;9724;51.194;6.856;2022-12-07T05:58:42;16.23;;;9.53;;
19183;SDS011;9724;51.194;6.856;2022-12-07T06:01:26;20.90;;;9.13;;
19183;SDS011;9724;51.194;6.856;2022-12-07T06:03:53;17.77;;;9.47;;
19183;SDS011;9724;51.194;6.856;2022-12-07T06:06:20;20.23;;;10.27;;
19183;SDS011;9724;51.194;6.856;2022-12-07T06:08:46;16.87;;;9.30;;
19183;SDS011;9724;51.194;6.856;2022-12-07T06:11:12;16.17;;;9.17;;
19183;SDS011;9724;51.194;6.856;2022-12-07T06:13:57;18.13;;;9.20;;
19183;SDS011;9724;51.194;6.856;2022-12-07T06:16:23;18.13;;;9.83;;
19183;SDS011;9724;51.194;6.856;2022-12-07T06:18:49;22.37;;;9.10;;
19183;SDS011;9724;51.194;6.856;2022-12-07T06:21:15;14.60;;;8.80;;
19183;SDS011;9724;51.194;6.856;2022-12-07T06:23:43;18.03;;;8.83;;
19183;SDS011;9724;51.194;6.856;2022-12-07T06:26:09;16.13;;;9.20;;
19183;SDS011;9724;51.194;6.856;2022-12-07T06:28:35;17.67;;;9.20;;
19183;SDS011;9724;51.194;6.856;2022-12-07T06:31:02;17.77;;;9.53;;
19183;SDS011;9724;51.194;6.856;2022-12-07T06:33:28;17.73;;;9.50;;
19183;SDS011;9724;51.194;6.856;2022-12-07T06:35:55;20.33;;;10.27;;
19183;SDS011;9724;51.194;6.856;2022-12-07T06:38:21;16.13;;;9.17;;
19183;SDS011;9724;51.194;6.856;2022-12-07T06:40:48;17.40;;;9.93;;
19183;SDS011;9724;51.194;6.856;2022-12-07T06:43:14;20.57;;;9.97;;
19183;SDS011;9724;51.194;6.856;2022-12-07T06:45:40;18.17;;;9.87;;
19183;SDS011;9724;51.194;6.856;2022-12-07T06:48:06;15.43;;;9.63;;
19183;SDS011;9724;51.194;6.856;2022-12-07T06:50:33;16.83;;;9.33;;
19183;SDS011;9724;51.194;6.856;2022-12-07T06:52:59;17.40;;;9.70;;
19183;SDS011;9724;51.194;6.856;2022-12-07T06:55:25;19.63;;;10.20;;
19183;SDS011;9724;51.194;6.856;2022-12-07T06:57:52;17.57;;;10.30;;
19183;SDS011;9724;51.194;6.856;2022-12-07T07:00:18;21.10;;;10.73;;
19183;SDS011;9724;51.194;6.856;2022-12-07T07:02:47;23.40;;;10.67;;
19183;SDS011;9724;51.194;6.856;2022-12-07T07:05:14;15.77;;;9.87;;
19183;SDS011;9724;51.194;6.856;2022-12-07T07:07:41;17.57;;;10.47;;
19183;SDS011;9724;51.194;6.856;2022-12-07T07:10:27;14.33;;;10.00;;
19183;SDS011;9724;51.194;6.856;2022-12-07T07:12:54;19.03;;;10.13;;
19183;SDS011;9724;51.194;6.856;2022-12-07T07:15:23;22.23;;;10.70;;
19183;SDS011;9724;51.194;6.856;2022-12-07T07:17:49;18.80;;;10.40;;
19183;SDS011;9724;51.194;6.856;2022-12-07T07:20:15;14.50;;;10.47;;
19183;SDS011;9724;51.194;6.856;2022-12-07T07:22:41;16.57;;;9.93;;
19183;SDS011;9724;51.194;6.856;2022-12-07T07:25:08;16.83;;;10.47;;
19183;SDS011;9724;51.194;6.856;2022-12-07T07:27:34;21.63;;;10.80;;
19183;SDS011;9724;51.194;6.856;2022-12-07T07:30:01;22.43;;;10.70;;
19183;SDS011;9724;51.194;6.856;2022-12-07T07:32:27;20.40;;;10.33;;
19183;SDS011;9724;51.194;6.856;2022-12-07T07:34:54;19.77;;;10.63;;
19183;SDS011;9724;51.194;6.856;2022-12-07T07:37:20;16.70;;;10.70;;
19183;SDS011;9724;51.194;6.856;2022-12-07T07:39:47;28.23;;;10.40;;
19183;SDS011;9724;51.194;6.856;2022-12-07T07:42:13;17.03;;;10.63;;
19183;SDS011;9724;51.194;6.856;2022-12-07T07:44:40;17.73;;;10.63;;
19183;SDS011;9724;51.194;6.856;2022-12-07T07:47:07;13.73;;;9.20;;
19183;SDS011;9724;51.194;6.856;2022-12-07T07:49:33;21.70;;;10.03;;
19183;SDS011;9724;51.194;6.856;2022-12-07T07:51:59;18.90;;;9.63;;
19183;SDS011;9724;51.194;6.856;2022-12-07T07:54:25;17.33;;;10.03;;
19183;SDS011;9724;51.194;6.856;2022-12-07T07:56:51;19.47;;;10.50;;
19183;SDS011;9724;51.194;6.856;2022-12-07T07:59:18;17.10;;;9.87;;
19183;SDS011;9724;51.194;6.856;2022-12-07T08:01:44;23.47;;;10.50;;
19183;SDS011;9724;51.194;6.856;2022-12-07T08:04:11;16.07;;;10.50;;
19183;SDS011;9724;51.194;6.856;2022-12-07T08:06:37;16.13;;;10.80;;
19183;SDS011;9724;51.194;6.856;2022-12-07T08:09:03;20.03;;;10.43;;
19183;SDS011;9724;51.194;6.856;2022-12-07T08:11:31;18.90;;;10.43;;
19183;SDS011;9724;51.194;6.856;2022-12-07T08:13:57;19.33;;;9.30;;
19183;SDS011;9724;51.194;6.856;2022-12-07T08:16:23;20.57;;;9.23;;
19183;SDS011;9724;51.194;6.856;2022-12-07T08:18:49;16.73;;;9.97;;
19183;SDS011;9724;51.194;6.856;2022-12-07T08:21:16;17.23;;;9.43;;
19183;SDS011;9724;51.194;6.856;2022-12-07T08:23:42;16.67;;;9.00;;
19183;SDS011;9724;51.194;6.856;2022-12-07T08:26:09;14.20;;;8.77;;
19183;SDS011;9724;51.194;6.856;2022-12-07T08:28:37;26.10;;;10.80;;
19183;SDS011;9724;51.194;6.856;2022-12-07T08:31:04;17.87;;;9.77;;
19183;SDS011;9724;51.194;6.856;2022-12-07T08:33:32;19.17;;;10.53;;
19183;SDS011;9724;51.194;6.856;2022-12-07T08:35:59;15.30;;;9.30;;
19183;SDS011;9724;51.194;6.856;2022-12-07T08:38:26;18.53;;;9.00;;
19183;SDS011;9724;51.194;6.856;2022-12-07T08:40:57;18.97;;;9.43;;
19183;SDS011;9724;51.194;6.856;2022-12-07T08:43:24;16.63;;;8.60;;
19183;SDS011;9724;51.194;6.856;2022-12-07T08:45:51;15.83;;;8.60;;
19183;SDS011;9724;51.194;6.856;2022-12-07T08:48:20;17.30;;;8.73;;
19183;SDS011;9724;51.194;6.856;2022-12-07T08:50:49;31.40;;;14.37;;
19183;SDS011;9724;51.194;6.856;2022-12-07T08:53:16;41.13;;;20.57;;
19183;SDS011;9724;51.194;6.856;2022-12-07T08:55:43;22.63;;;11.97;;
19183;SDS011;9724;51.194;6.856;2022-12-07T08:58:10;16.13;;;8.77;;
19183;SDS011;9724;51.194;6.856;2022-12-07T09:00:36;18.67;;;8.33;;
19183;SDS011;9724;51.194;6.856;2022-12-07T09:03:02;12.27;;;7.67;;
19183;SDS011;9724;51.194;6.856;2022-12-07T09:05:28;13.53;;;7.70;;
19183;SDS011;9724;51.194;6.856;2022-12-07T09:07:56;15.07;;;7.63;;
19183;SDS011;9724;51.194;6.856;2022-12-07T09:10:24;18.57;;;8.10;;
19183;SDS011;9724;51.194;6.856;2022-12-07T09:12:51;15.73;;;7.30;;
19183;SDS011;9724;51.194;6.856;2022-12-07T09:15:18;15.07;;;7.80;;
19183;SDS011;9724;51.194;6.856;2022-12-07T09:17:44;16.30;;;7.77;;
19183;SDS011;9724;51.194;6.856;2022-12-07T09:20:10;14.27;;;7.60;;
19183;SDS011;9724;51.194;6.856;2022-12-07T09:22:37;12.37;;;7.70;;
19183;SDS011;9724;51.194;6.856;2022-12-07T09:25:04;11.80;;;7.90;;
19183;SDS011;9724;51.194;6.856;2022-12-07T09:27:31;12.77;;;7.70;;
19183;SDS011;9724;51.194;6.856;2022-12-07T09:29:57;15.20;;;7.80;;
19183;SDS011;9724;51.194;6.856;2022-12-07T09:32:23;13.83;;;7.73;;
19183;SDS011;9724;51.194;6.856;2022-12-07T09:34:50;12.17;;;6.60;;
19183;SDS011;9724;51.194;6.856;2022-12-07T09:37:16;10.60;;;7.13;;
19183;SDS011;9724;51.194;6.856;2022-12-07T09:39:42;16.47;;;7.43;;
19183;SDS011;9724;51.194;6.856;2022-12-07T09:42:18;12.13;;;6.83;;
19183;SDS011;9724;51.194;6.856;2022-12-07T09:44:52;16.30;;;7.93;;
19183;SDS011;9724;51.194;6.856;2022-12-07T09:47:19;17.13;;;7.67;;
19183;SDS011;9724;51.194;6.856;2022-12-07T09:49:45;10.37;;;6.57;;
19183;SDS011;9724;51.194;6.856;2022-12-07T09:52:17;15.93;;;7.03;;
19183;SDS011;9724;51.194;6.856;2022-12-07T09:54:45;12.80;;;7.27;;
19183;SDS011;9724;51.194;6.856;2022-12-07T09:57:12;16.07;;;6.83;;
19183;SDS011;9724;51.194;6.856;2022-12-07T09:59:39;12.03;;;6.90;;
19183;SDS011;9724;51.194;6.856;2022-12-07T10:02:19;13.40;;;7.20;;
19183;SDS011;9724;51.194;6.856;2022-12-07T10:04:51;13.20;;;7.00;;
19183;SDS011;9724;51.194;6.856;2022-12-07T10:07:17;13.97;;;6.93;;
19183;SDS011;9724;51.194;6.856;2022-12-07T10:09:43;13.63;;;6.93;;
19183;SDS011;9724;51.194;6.856;2022-12-07T10:12:10;17.20;;;7.67;;
19183;SDS011;9724;51.194;6.856;2022-12-07T10:14:38;14.47;;;7.10;;
19183;SDS011;9724;51.194;6.856;2022-12-07T10:17:30;18.07;;;7.13;;
19183;SDS011;9724;51.194;6.856;2022-12-07T10:20:08;12.07;;;6.40;;
19183;SDS011;9724;51.194;6.856;2022-12-07T10:22:41;17.37;;;7.03;;
19183;SDS011;9724;51.194;6.856;2022-12-07T10:25:20;12.63;;;7.13;;
19183;SDS011;9724;51.194;6.856;2022-12-07T10:27:56;11.00;;;6.13;;
19183;SDS011;9724;51.194;6.856;2022-12-07T10:30:23;12.70;;;6.60;;
19183;SDS011;9724;51.194;6.856;2022-12-07T10:32:50;11.73;;;6.70;;
19183;SDS011;9724;51.194;6.856;2022-12-07T10:35:21;18.20;;;6.73;;
19183;SDS011;9724;51.194;6.856;2022-12-07T10:37:50;12.13;;;6.63;;
19183;SDS011;9724;51.194;6.856;2022-12-07T10:40:26;18.17;;;6.73;;
19183;SDS011;9724;51.194;6.856;2022-12-07T10:43:01;13.20;;;6.20;;
19183;SDS011;9724;51.194;6.856;2022-12-07T10:45:28;8.90;;;5.80;;
19183;SDS011;9724;51.194;6.856;2022-12-07T10:47:57;13.17;;;6.07;;
19183;SDS011;9724;51.194;6.856;2022-12-07T10:53:24;11.00;;;6.10;;
19183;SDS011;9724;51.194;6.856;2022-12-07T10:56:20;12.60;;;6.33;;
19183;SDS011;9724;51.194;6.856;2022-12-07T10:59:01;21.17;;;6.10;;
19183;SDS011;9724;51.194;6.856;2022-12-07T11:01:36;14.10;;;5.97;;
19183;SDS011;9724;51.194;6.856;2022-12-07T11:04:12;15.60;;;6.43;;
19183;SDS011;9724;51.194;6.856;2022-12-07T11:06:45;17.77;;;7.07;;
19183;SDS011;9724;51.194;6.856;2022-12-07T11:09:25;15.70;;;6.33;;
19183;SDS011;9724;51.194;6.856;2022-12-07T11:12:24;24.77;;;6.10;;
19183;SDS011;9724;51.194;6.856;2022-12-07T11:14:56;8.67;;;5.03;;
19183;SDS011;9724;51.194;6.856;2022-12-07T11:17:28;18.10;;;6.10;;
19183;SDS011;9724;51.194;6.856;2022-12-07T11:20:04;20.83;;;6.03;;
19183;SDS011;9724;51.194;6.856;2022-12-07T11:22:40;7.50;;;5.00;;
19183;SDS011;9724;51.194;6.856;2022-12-07T11:25:14;12.17;;;5.27;;
19183;SDS011;9724;51.194;6.856;2022-12-07T11:27:56;16.10;;;5.07;;
19183;SDS011;9724;51.194;6.856;2022-12-07T11:30:30;10.60;;;4.13;;
19183;SDS011;9724;51.194;6.856;2022-12-07T11:33:04;12.70;;;4.33;;
19183;SDS011;9724;51.194;6.856;2022-12-07T11:35:38;10.40;;;4.60;;
19183;SDS011;9724;51.194;6.856;2022-12-07T11:38:14;9.87;;;4.40;;
19183;SDS011;9724;51.194;6.856;2022-12-07T11:40:43;9.63;;;4.40;;
19183;SDS011;9724;51.194;6.856;2022-12-07T11:43:13;20.07;;;6.10;;
19183;SDS011;9724;51.194;6.856;2022-12-07T11:45:44;17.17;;;4.73;;
19183;SDS011;9724;51.194;6.856;2022-12-07T11:48:14;12.37;;;4.20;;
19183;SDS011;9724;51.194;6.856;2022-12-07T11:50:44;12.03;;;4.70;;
19183;SDS011;9724;51.194;6.856;2022-12-07T11:53:14;9.13;;;4.13;;
19183;SDS011;9724;51.194;6.856;2022-12-07T11:55:43;14.93;;;4.30;;
19183;SDS011;9724;51.194;6.856;2022-12-07T11:58:15;16.03;;;4.33;;
19183;SDS011;9724;51.194;6.856;2022-12-07T12:00:47;12.50;;;4.27;;
19183;SDS011;9724;51.194;6.856;2022-12-07T12:03:15;16.67;;;3.60;;
19183;SDS011;9724;51.194;6.856;2022-12-07T12:05:46;12.47;;;4.70;;
19183;SDS011;9724;51.194;6.856;2022-12-07T12:08:13;12.73;;;4.33;;
19183;SDS011;9724;51.194;6.856;2022-12-07T12:11:03;15.10;;;4.60;;
19183;SDS011;9724;51.194;6.856;2022-12-07T12:13:54;12.10;;;4.80;;
19183;SDS011;9724;51.194;6.856;2022-12-07T12:17:07;10.77;;;4.60;;
19183;SDS011;9724;51.194;6.856;2022-12-07T12:19:42;10.13;;;4.13;;
19183;SDS011;9724;51.194;6.856;2022-12-07T12:22:12;14.40;;;4.90;;
19183;SDS011;9724;51.194;6.856;2022-12-07T12:24:40;8.07;;;4.13;;
19183;SDS011;9724;51.194;6.856;2022-12-07T12:27:08;9.97;;;5.00;;
19183;SDS011;9724;51.194;6.856;2022-12-07T12:29:40;8.97;;;4.07;;
19183;SDS011;9724;51.194;6.856;2022-12-07T12:32:13;21.27;;;4.07;;
19183;SDS011;9724;51.194;6.856;2022-12-07T12:34:42;7.03;;;3.90;;
19183;SDS011;9724;51.194;6.856;2022-12-07T12:37:43;11.13;;;3.67;;
19183;SDS011;9724;51.194;6.856;2022-12-07T12:55:17;11.70;;;4.27;;
19183;SDS011;9724;51.194;6.856;2022-12-07T12:57:47;11.83;;;3.70;;
19183;SDS011;9724;51.194;6.856;2022-12-07T13:00:21;17.17;;;3.93;;
19183;SDS011;9724;51.194;6.856;2022-12-07T13:02:49;10.37;;;4.27;;
19183;SDS011;9724;51.194;6.856;2022-12-07T13:05:18;13.53;;;3.60;;
19183;SDS011;9724;51.194;6.856;2022-12-07T13:07:58;9.53;;;3.70;;
19183;SDS011;9724;51.194;6.856;2022-12-07T13:10:37;14.57;;;3.97;;
19183;SDS011;9724;51.194;6.856;2022-12-07T13:13:25;9.20;;;3.60;;
19183;SDS011;9724;51.194;6.856;2022-12-07T13:15:56;10.93;;;3.67;;
19183;SDS011;9724;51.194;6.856;2022-12-07T13:18:56;11.77;;;4.43;;
19183;SDS011;9724;51.194;6.856;2022-12-07T13:21:41;13.33;;;4.20;;
19183;SDS011;9724;51.194;6.856;2022-12-07T13:24:08;8.07;;;4.07;;
19183;SDS011;9724;51.194;6.856;2022-12-07T13:26:37;7.80;;;4.00;;
19183;SDS011;9724;51.194;6.856;2022-12-07T13:29:06;11.07;;;4.63;;
19183;SDS011;9724;51.194;6.856;2022-12-07T13:31:37;10.67;;;4.20;;
19183;SDS011;9724;51.194;6.856;2022-12-07T13:34:05;11.93;;;4.20;;
19183;SDS011;9724;51.194;6.856;2022-12-07T13:36:51;14.43;;;3.70;;
19183;SDS011;9724;51.194;6.856;2022-12-07T13:39:18;9.40;;;3.20;;
19183;SDS011;9724;51.194;6.856;2022-12-07T13:41:50;9.47;;;2.90;;
19183;SDS011;9724;51.194;6.856;2022-12-07T13:44:17;12.13;;;2.90;;
19183;SDS011;9724;51.194;6.856;2022-12-07T13:46:55;11.80;;;2.70;;
19183;SDS011;9724;51.194;6.856;2022-12-07T13:49:25;6.50;;;2.40;;
19183;SDS011;9724;51.194;6.856;2022-12-07T13:51:53;11.73;;;3.23;;
19183;SDS011;9724;51.194;6.856;2022-12-07T13:54:20;8.80;;;2.93;;
19183;SDS011;9724;51.194;6.856;2022-12-07T13:56:48;12.00;;;3.47;;
19183;SDS011;9724;51.194;6.856;2022-12-07T13:59:17;9.23;;;3.03;;
19183;SDS011;9724;51.194;6.856;2022-12-07T14:01:45;9.57;;;3.60;;
19183;SDS011;9724;51.194;6.856;2022-12-07T14:04:17;9.50;;;3.50;;
19183;SDS011;9724;51.194;6.856;2022-12-07T14:06:48;7.37;;;3.20;;
19183;SDS011;9724;51.194;6.856;2022-12-07T14:09:19;9.83;;;3.30;;
19183;SDS011;9724;51.194;6.856;2022-12-07T14:11:47;11.20;;;3.60;;
19183;SDS011;9724;51.194;6.856;2022-12-07T14:14:16;9.10;;;3.10;;
19183;SDS011;9724;51.194;6.856;2022-12-07T14:16:54;9.53;;;2.83;;
19183;SDS011;9724;51.194;6.856;2022-12-07T14:19:41;5.57;;;2.90;;
19183;SDS011;9724;51.194;6.856;2022-12-07T14:22:31;8.27;;;2.63;;
19183;SDS011;9724;51.194;6.856;2022-12-07T14:25:00;7.50;;;2.90;;
19183;SDS011;9724;51.194;6.856;2022-12-07T14:27:35;11.73;;;2.80;;
19183;SDS011;9724;51.194;6.856;2022-12-07T14:30:02;11.77;;;2.67;;
19183;SDS011;9724;51.194;6.856;2022-12-07T14:32:30;10.17;;;2.40;;
19183;SDS011;9724;51.194;6.856;2022-12-07T14:34:58;12.73;;;2.70;;
19183;SDS011;9724;51.194;6.856;2022-12-07T14:37:26;10.57;;;3.20;;
19183;SDS011;9724;51.194;6.856;2022-12-07T14:39:53;7.40;;;2.80;;
19183;SDS011;9724;51.194;6.856;2022-12-07T14:42:19;9.47;;;2.80;;
19183;SDS011;9724;51.194;6.856;2022-12-07T14:44:46;9.83;;;3.13;;
19183;SDS011;9724;51.194;6.856;2022-12-07T14:47:12;6.00;;;3.10;;
19183;SDS011;9724;51.194;6.856;2022-12-07T14:49:59;12.27;;;3.30;;
19183;SDS011;9724;51.194;6.856;2022-12-07T14:52:31;13.93;;;3.43;;
19183;SDS011;9724;51.194;6.856;2022-12-07T14:55:20;14.97;;;3.10;;
19183;SDS011;9724;51.194;6.856;2022-12-07T14:57:49;13.37;;;3.30;;
19183;SDS011;9724;51.194;6.856;2022-12-07T15:00:16;11.10;;;3.17;;
19183;SDS011;9724;51.194;6.856;2022-12-07T15:02:44;12.73;;;4.50;;
19183;SDS011;9724;51.194;6.856;2022-12-07T15:05:11;15.77;;;3.60;;
19183;SDS011;9724;51.194;6.856;2022-12-07T15:07:41;10.23;;;3.63;;
19183;SDS011;9724;51.194;6.856;2022-12-07T15:10:13;7.90;;;3.60;;
19183;SDS011;9724;51.194;6.856;2022-12-07T15:12:47;14.70;;;4.43;;
19183;SDS011;9724;51.194;6.856;2022-12-07T15:15:13;11.13;;;4.10;;
19183;SDS011;9724;51.194;6.856;2022-12-07T15:17:40;9.20;;;4.10;;
19183;SDS011;9724;51.194;6.856;2022-12-07T15:20:08;13.80;;;4.10;;